Time;durP1;ratioP1;P1;durP2;ratioP2;P2;SDS_P1;SDS_P2;PMS_P1;PMS_P2;Temp;Humidity;BMP_temperature;BMP_pressure;BME280_temperature;BME280_humidity;BME280_pressure;Samples;Min_cycle;Max_cycle;Signal;HPM_P1;HPM_P2
2023/02/27 00:00:05;;;;;;;35.60;11.80;;;;;;;0.30;72.53;101050.80;130039;1253;114788;-65
2023/02/27 00:03:27;;;;;;;37.90;14.20;;;;;;;0.31;72.44;101057.30;129954;1276;114842;-65
2023/02/27 00:06:30;;;;;;;37.00;13.70;;;;;;;0.31;72.36;101054.49;130030;1254;114811;-65
2023/02/27 00:09:32;;;;;;;29.00;11.30;;;;;;;0.32;72.46;101055.39;129942;1256;114775;-65
2023/02/27 00:12:38;;;;;;;25.20;10.50;;;;;;;0.32;72.38;101059.42;130055;1257;114851;-65
2023/02/27 00:15:40;;;;;;;19.80;9.40;;;;;;;0.33;72.14;101056.26;129679;1276;114926;-64
2023/02/27 00:18:42;;;;;;;21.40;9.10;;;;;;;0.32;72.33;101056.27;130005;1256;115559;-65
2023/02/27 00:21:45;;;;;;;18.40;9.20;;;;;;;0.32;72.23;101056.61;130014;1276;114789;-65
2023/02/27 00:24:48;;;;;;;24.20;9.70;;;;;;;0.31;72.41;101061.52;130010;1276;114651;-65
2023/02/27 00:27:51;;;;;;;22.40;9.30;;;;;;;0.30;72.24;101058.19;129999;1264;114824;-64
2023/02/27 00:30:54;;;;;;;21.30;8.90;;;;;;;0.29;72.13;101061.50;129726;1254;128235;-65
2023/02/27 00:33:57;;;;;;;25.10;9.40;;;;;;;0.27;72.09;101060.45;130049;1256;115087;-66
2023/02/27 00:36:59;;;;;;;20.10;8.70;;;;;;;0.27;71.95;101059.74;129986;1276;115247;-65
2023/02/27 00:40:04;;;;;;;22.80;8.90;;;;;;;0.27;72.06;101060.63;130012;1254;114782;-63
2023/02/27 00:43:06;;;;;;;17.10;8.80;;;;;;;0.27;72.06;101057.98;130085;1254;115153;-66
2023/02/27 00:46:09;;;;;;;20.50;9.50;;;;;;;0.27;72.26;101059.91;130008;1254;114798;-63
2023/02/27 00:49:11;;;;;;;18.80;9.30;;;;;;;0.26;72.19;101059.04;130103;1256;115397;-61
2023/02/27 00:52:14;;;;;;;17.40;8.50;;;;;;;0.26;72.25;101061.31;129798;1257;115256;-64
2023/02/27 00:55:16;;;;;;;20.70;9.10;;;;;;;0.26;72.52;101063.42;130040;1256;114748;-64
2023/02/27 00:58:19;;;;;;;21.80;9.50;;;;;;;0.26;72.05;101062.38;130069;1254;114760;-64
2023/02/27 01:01:22;;;;;;;24.90;8.70;;;;;;;0.24;71.94;101059.21;130053;1267;115243;-64
2023/02/27 01:04:25;;;;;;;22.00;9.20;;;;;;;0.22;71.85;101052.88;129952;1257;115173;-64
2023/02/27 01:07:28;;;;;;;17.40;8.00;;;;;;;0.20;71.95;101051.63;130068;1256;114754;-64
2023/02/27 01:10:30;;;;;;;20.40;8.50;;;;;;;0.20;72.08;101048.11;130073;1256;115175;-64
2023/02/27 01:13:33;;;;;;;16.40;7.50;;;;;;;0.21;72.08;101047.59;130132;1256;114783;-64
2023/02/27 01:16:35;;;;;;;16.90;7.30;;;;;;;0.22;72.05;101046.89;130062;1254;114824;-66
2023/02/27 01:19:39;;;;;;;17.00;8.40;;;;;;;0.23;72.34;101050.60;130162;1257;114735;-65
2023/02/27 01:22:42;;;;;;;10.70;5.00;;;;;;;0.23;72.26;101051.30;129828;1256;115350;-65
2023/02/27 01:25:48;;;;;;;17.10;7.70;;;;;;;0.22;71.96;101051.47;129782;1256;326514;-66
2023/02/27 01:28:50;;;;;;;13.50;7.90;;;;;;;0.20;72.06;101050.40;130038;1276;115381;-64
2023/02/27 01:31:53;;;;;;;18.30;9.10;;;;;;;0.19;71.95;101049.70;130040;1256;114734;-63
2023/02/27 01:34:55;;;;;;;14.90;6.90;;;;;;;0.19;71.88;101052.32;129979;1272;114792;-65
2023/02/27 01:37:58;;;;;;;18.80;7.60;;;;;;;0.19;72.01;101049.34;130275;1256;115037;-65
2023/02/27 01:41:01;;;;;;;15.60;7.70;;;;;;;0.18;71.82;101050.21;130149;1256;114808;-64
2023/02/27 01:44:12;;;;;;;19.70;7.70;;;;;;;0.17;71.67;101054.09;129924;1254;128848;-64
2023/02/27 01:47:14;;;;;;;17.50;7.50;;;;;;;0.17;71.72;101054.60;130198;1256;115221;-64
2023/02/27 01:50:18;;;;;;;13.80;6.70;;;;;;;0.14;71.63;101054.77;130039;1258;115344;-63
2023/02/27 01:53:24;;;;;;;13.10;5.90;;;;;;;0.12;71.20;101057.20;129978;1254;114779;-63
2023/02/27 01:56:29;;;;;;;17.80;7.90;;;;;;;0.12;71.53;101063.17;130005;1254;114816;-63
2023/02/27 01:59:33;;;;;;;14.70;6.40;;;;;;;0.10;71.40;101063.52;129706;1270;127387;-64
2023/02/27 02:02:39;;;;;;;15.20;7.20;;;;;;;0.12;71.55;101064.06;129980;1256;115151;-62
2023/02/27 02:05:43;;;;;;;17.30;6.90;;;;;;;0.12;71.45;101065.98;129956;1254;114718;-64
2023/02/27 02:08:48;;;;;;;16.70;7.10;;;;;;;0.13;71.65;101069.69;129886;1276;114927;-63
2023/02/27 02:11:51;;;;;;;18.20;7.60;;;;;;;0.15;71.63;101074.79;129840;1276;114835;-65
2023/02/27 02:14:54;;;;;;;17.90;7.30;;;;;;;0.14;71.96;101064.25;129969;1276;114733;-64
2023/02/27 02:18:06;;;;;;;14.90;7.30;;;;;;;0.15;71.81;101066.72;129915;1276;114723;-64
2023/02/27 02:21:34;;;;;;;17.00;7.20;;;;;;;0.16;72.04;101067.42;129776;1260;114947;-62
2023/02/27 02:24:55;;;;;;;15.90;7.80;;;;;;;0.16;71.84;101067.06;129973;1276;114856;-63
2023/02/27 02:28:13;;;;;;;16.20;7.30;;;;;;;0.17;72.13;101070.23;130018;1256;114916;-63
2023/02/27 02:31:34;;;;;;;11.80;6.30;;;;;;;0.17;71.90;101071.81;130021;1272;128776;-65
2023/02/27 02:35:14;;;;;;;16.00;6.30;;;;;;;0.16;71.66;101068.83;129931;1254;115141;-62
2023/02/27 02:39:09;;;;;;;14.10;6.20;;;;;;;0.15;71.68;101075.48;129996;1254;115032;-63
2023/02/27 02:42:21;;;;;;;18.30;7.50;;;;;;;0.14;71.68;101079.35;129354;1260;114748;-64
2023/02/27 02:45:32;;;;;;;20.40;7.70;;;;;;;0.13;71.78;101084.44;129288;1264;114900;-62
2023/02/27 02:48:55;;;;;;;12.40;6.40;;;;;;;0.13;71.85;101089.89;129156;1267;127996;-64
2023/02/27 02:52:03;;;;;;;12.20;5.60;;;;;;;0.13;71.77;101089.54;129357;1264;114756;-63
2023/02/27 02:55:22;;;;;;;13.90;5.90;;;;;;;0.13;71.81;101091.81;129189;1261;114943;-65
2023/02/27 02:58:48;;;;;;;10.60;5.90;;;;;;;0.14;71.65;101097.62;129246;1260;114889;-63
2023/02/27 03:01:58;;;;;;;9.00;4.40;;;;;;;0.13;71.57;101102.89;129286;1283;114811;-64
2023/02/27 03:05:11;;;;;;;13.00;5.80;;;;;;;0.13;71.72;101111.66;129117;1265;128194;-65
2023/02/27 03:08:18;;;;;;;15.20;6.60;;;;;;;0.12;71.62;101114.29;129251;1260;116608;-65
2023/02/27 03:11:26;;;;;;;10.90;5.50;;;;;;;0.11;71.55;101117.79;129360;1259;114718;-64
2023/02/27 03:14:39;;;;;;;14.00;5.20;;;;;;;0.09;71.40;101119.17;129269;1261;114871;-65
2023/02/27 03:17:58;;;;;;;11.10;5.30;;;;;;;0.08;71.48;101118.31;129662;1259;114788;-63
2023/02/27 03:21:14;;;;;;;11.60;5.60;;;;;;;0.07;71.29;101117.60;129879;1254;128819;-65
2023/02/27 03:24:21;;;;;;;12.50;5.50;;;;;;;0.05;71.33;101123.73;129909;1276;115167;-65
2023/02/27 03:27:26;;;;;;;9.60;5.00;;;;;;;0.05;71.31;101128.64;129726;1254;115262;-64
2023/02/27 03:30:29;;;;;;;;;;;;;;;0.04;71.40;101125.46;130021;1272;114881;-64
2023/02/27 03:33:35;;;;;;;16.40;5.90;;;;;;;0.02;71.53;101130.55;130012;1276;114763;-63
2023/02/27 03:36:49;;;;;;;14.90;5.70;;;;;;;0.00;71.44;101131.08;129649;1262;128190;-66
2023/02/27 03:40:11;;;;;;;14.20;5.80;;;;;;;-0.00;71.45;101132.83;129994;1258;115234;-65
2023/02/27 03:43:14;;;;;;;11.70;5.00;;;;;;;0.01;71.53;101131.77;129900;1256;114718;-64
2023/02/27 03:46:21;;;;;;;14.90;5.50;;;;;;;-0.00;71.38;101133.88;130039;1253;114731;-63
2023/02/27 03:49:24;;;;;;;10.90;4.50;;;;;;;-0.01;71.46;101136.52;129558;1276;114949;-64
2023/02/27 03:52:28;;;;;;;13.40;4.70;;;;;;;-0.01;71.26;101140.36;129950;1276;114790;-63
2023/02/27 03:55:37;;;;;;;10.20;4.80;;;;;;;-0.03;71.48;101142.11;129583;1262;114849;-63
2023/02/27 03:58:40;;;;;;;10.20;4.80;;;;;;;-0.03;71.39;101142.29;129963;1260;114968;-65
2023/02/27 04:01:43;;;;;;;13.00;4.50;;;;;;;-0.05;71.41;101148.06;129903;1254;114808;-64
2023/02/27 04:04:45;;;;;;;14.40;5.40;;;;;;;-0.05;71.48;101152.63;129931;1256;114724;-65
2023/02/27 04:08:06;;;;;;;10.70;4.30;;;;;;;-0.06;71.40;101155.95;130019;1253;115393;-63
2023/02/27 04:11:18;;;;;;;8.90;4.30;;;;;;;-0.07;71.34;101156.29;129938;1256;115185;-65
2023/02/27 04:14:26;;;;;;;11.10;4.50;;;;;;;-0.09;71.25;101159.10;130000;1256;115323;-63
2023/02/27 04:17:31;;;;;;;13.40;5.20;;;;;;;-0.12;71.39;101159.59;129688;1257;115404;-64
2023/02/27 04:20:44;;;;;;;10.50;4.80;;;;;;;-0.13;71.43;101163.61;129685;1254;115257;-64
2023/02/27 04:23:57;;;;;;;10.20;4.50;;;;;;;-0.15;71.47;101163.61;130034;1257;129013;-63
2023/02/27 04:27:31;;;;;;;11.70;4.30;;;;;;;-0.17;71.42;101164.13;129720;1254;115199;-64
2023/02/27 04:30:34;;;;;;;12.10;5.00;;;;;;;-0.17;71.58;101167.81;129594;1264;114752;-65
2023/02/27 04:33:46;;;;;;;13.00;4.10;;;;;;;-0.17;71.64;101169.04;129876;1256;114734;-65
2023/02/27 04:37:00;;;;;;;7.70;4.50;;;;;;;-0.18;71.63;101167.80;129577;1278;114923;-61
2023/02/27 04:40:09;;;;;;;8.20;4.40;;;;;;;-0.19;71.84;101169.38;129807;1260;128010;-64
2023/02/27 04:43:13;;;;;;;11.30;4.40;;;;;;;-0.21;71.80;101168.13;129726;1270;114642;-65
2023/02/27 04:46:18;;;;;;;9.70;4.80;;;;;;;-0.22;71.72;101169.16;129678;1271;114805;-65
2023/02/27 04:49:26;;;;;;;7.80;4.90;;;;;;;-0.24;71.89;101166.67;129561;1264;114727;-64
2023/02/27 04:52:52;;;;;;;9.60;4.30;;;;;;;-0.26;71.95;101171.25;129798;1268;115239;-63
2023/02/27 04:55:59;;;;;;;11.20;4.60;;;;;;;-0.29;71.87;101173.14;129509;1262;127091;-65
2023/02/27 04:59:05;;;;;;;7.90;4.60;;;;;;;-0.30;72.01;101172.08;129612;1264;115525;-63
2023/02/27 05:02:14;;;;;;;12.70;5.60;;;;;;;-0.29;71.87;101177.70;129529;1256;114694;-63
2023/02/27 05:05:23;;;;;;;16.20;5.60;;;;;;;-0.31;72.06;101182.78;129723;1259;114830;-63
2023/02/27 05:08:48;;;;;;;14.30;5.70;;;;;;;-0.33;72.10;101183.81;129791;1259;114841;-64
2023/02/27 05:11:57;;;;;;;9.70;5.60;;;;;;;-0.35;72.03;101183.80;129668;1278;129449;-64
2023/02/27 05:15:27;;;;;;;12.70;5.50;;;;;;;-0.35;72.27;101185.55;129777;1275;115276;-63
2023/02/27 05:18:29;;;;;;;10.20;5.20;;;;;;;-0.36;72.27;101189.05;129642;1258;114830;-63
2023/02/27 05:22:13;;;;;;;11.20;5.20;;;;;;;-0.37;72.38;101189.05;129892;1259;114776;-64
2023/02/27 05:25:38;;;;;;;14.70;6.20;;;;;;;-0.38;72.28;101192.36;128971;1270;114896;-65
2023/02/27 05:29:02;;;;;;;16.10;6.10;;;;;;;-0.39;72.38;101193.76;129089;1267;128851;-65
2023/02/27 05:32:21;;;;;;;15.40;6.50;;;;;;;-0.39;72.37;101192.52;129066;1267;115391;-65
2023/02/27 05:35:53;;;;;;;16.60;7.50;;;;;;;-0.39;72.40;101194.80;129084;1285;114927;-64
2023/02/27 05:38:59;;;;;;;19.40;9.80;;;;;;;-0.39;72.56;101199.91;129028;1262;116279;-64
2023/02/27 05:42:25;;;;;;;17.30;8.60;;;;;;;-0.37;72.53;101200.45;129127;1268;114808;-64
2023/02/27 05:45:31;;;;;;;20.20;8.60;;;;;;;-0.36;72.66;101206.25;129127;1285;128107;-64
2023/02/27 05:48:43;;;;;;;31.70;13.00;;;;;;;-0.36;72.71;101210.29;129339;1267;115330;-64
2023/02/27 05:51:48;;;;;;;19.90;6.80;;;;;;;-0.37;72.50;101215.02;128964;1270;115023;-65
2023/02/27 05:54:59;;;;;;;13.10;6.50;;;;;;;-0.39;72.65;101216.05;129102;1263;116038;-65
2023/02/27 05:58:01;;;;;;;13.60;5.70;;;;;;;-0.39;72.77;101219.89;128984;1264;116429;-65
2023/02/27 06:01:06;;;;;;;12.40;5.70;;;;;;;-0.39;72.70;101220.44;129160;1268;114796;-64
2023/02/27 06:04:08;;;;;;;10.60;5.60;;;;;;;-0.38;72.76;101225.89;129609;1278;114899;-64
2023/02/27 06:07:13;;;;;;;11.20;6.00;;;;;;;-0.38;72.72;101224.14;129659;1257;114755;-62
2023/02/27 06:10:18;;;;;;;14.70;6.90;;;;;;;-0.37;72.78;101225.72;129941;1278;114842;-64
2023/02/27 06:13:21;;;;;;;18.70;6.60;;;;;;;-0.35;72.73;101224.87;129694;1262;115106;-63
2023/02/27 06:16:23;;;;;;;13.60;7.30;;;;;;;-0.34;72.91;101227.33;129545;1260;114816;-64
2023/02/27 06:19:26;;;;;;;15.40;7.00;;;;;;;-0.33;72.91;101229.63;129768;1257;115264;-64
2023/02/27 06:22:28;;;;;;;17.20;7.40;;;;;;;-0.32;72.77;101229.45;129740;1259;114764;-64
2023/02/27 06:25:31;;;;;;;17.80;7.90;;;;;;;-0.29;72.97;101226.67;129988;1259;114808;-65
2023/02/27 06:28:33;;;;;;;17.90;7.60;;;;;;;-0.26;73.03;101228.64;129825;1259;114728;-64
2023/02/27 06:31:35;;;;;;;14.00;5.90;;;;;;;-0.22;73.15;101234.29;130105;1267;114858;-66
2023/02/27 06:34:37;;;;;;;13.60;5.70;;;;;;;-0.19;72.86;101236.78;130144;1269;114696;-65
2023/02/27 06:37:40;;;;;;;18.60;7.80;;;;;;;-0.16;72.80;101239.98;129942;1256;128881;-64
2023/02/27 06:40:42;;;;;;;14.90;5.90;;;;;;;-0.11;73.00;101239.85;130084;1256;114751;-63
2023/02/27 06:43:45;;;;;;;11.70;5.40;;;;;;;-0.07;72.93;101241.82;130143;1276;114791;-65
2023/02/27 06:46:47;;;;;;;12.10;6.10;;;;;;;-0.04;72.91;101245.36;130060;1257;114738;-63
2023/02/27 06:49:49;;;;;;;13.30;6.50;;;;;;;0.01;73.04;101248.04;130049;1258;114910;-66
2023/02/27 06:52:52;;;;;;;18.90;7.10;;;;;;;0.08;73.24;101247.73;129902;1272;114725;-65
2023/02/27 06:55:54;;;;;;;12.10;5.50;;;;;;;0.12;72.97;101255.52;130032;1256;114720;-65
2023/02/27 06:58:56;;;;;;;14.00;6.30;;;;;;;0.14;72.94;101259.21;129992;1276;128853;-63
2023/02/27 07:01:59;;;;;;;15.40;6.60;;;;;;;0.16;72.79;101267.31;129964;1256;114839;-65
2023/02/27 07:05:02;;;;;;;12.90;5.80;;;;;;;0.19;72.70;101267.15;129922;1256;114731;-65
2023/02/27 07:08:04;;;;;;;14.40;5.80;;;;;;;0.20;72.72;101270.51;130115;1256;115468;-64
2023/02/27 07:11:06;;;;;;;13.90;6.10;;;;;;;0.22;72.89;101272.11;129732;1254;114823;-66
2023/02/27 07:14:09;;;;;;;14.70;6.40;;;;;;;0.24;72.70;101277.75;129995;1256;114722;-65
2023/02/27 07:17:11;;;;;;;13.80;5.50;;;;;;;0.28;72.73;101280.94;129922;1254;115322;-64
2023/02/27 07:20:14;;;;;;;14.90;6.00;;;;;;;0.29;72.58;101277.44;130051;1255;115185;-65
2023/02/27 07:23:17;;;;;;;10.40;4.90;;;;;;;0.32;72.50;101278.88;130034;1256;115262;-64
2023/02/27 07:26:20;;;;;;;13.00;5.70;;;;;;;0.37;72.52;101284.88;130068;1256;114883;-64
2023/02/27 07:29:22;;;;;;;11.40;6.10;;;;;;;0.42;72.50;101286.86;130019;1253;114725;-64
2023/02/27 07:32:26;;;;;;;15.10;6.60;;;;;;;0.44;72.20;101284.23;129982;1254;114727;-64
2023/02/27 07:35:28;;;;;;;14.10;6.30;;;;;;;0.45;72.26;101290.58;130013;1256;114783;-63
2023/02/27 07:38:31;;;;;;;14.00;6.20;;;;;;;0.51;72.41;101292.73;130148;1254;114731;-64
2023/02/27 07:41:33;;;;;;;11.80;6.40;;;;;;;0.55;72.19;101294.35;129697;1276;115211;-64
2023/02/27 07:44:36;;;;;;;9.00;5.70;;;;;;;0.58;72.29;101294.55;130151;1256;114725;-63
2023/02/27 07:47:38;;;;;;;20.50;9.60;;;;;;;0.62;72.16;101294.23;130026;1266;114736;-63
2023/02/27 07:50:41;;;;;;;90.00;25.60;;;;;;;0.67;72.20;101295.31;130090;1254;114769;-64
2023/02/27 07:53:43;;;;;;;20.70;7.60;;;;;;;0.70;72.05;101298.67;129844;1263;114795;-64
2023/02/27 07:56:45;;;;;;;9.70;5.50;;;;;;;0.75;72.34;101299.95;130144;1256;114724;-64
2023/02/27 07:59:48;;;;;;;14.70;5.80;;;;;;;0.81;72.25;101301.74;129978;1267;114740;-62
2023/02/27 08:02:50;;;;;;;12.10;5.80;;;;;;;0.87;72.28;101303.02;129754;1254;115189;-64
2023/02/27 08:05:53;;;;;;;12.50;5.70;;;;;;;0.96;72.28;101305.02;129923;1256;114873;-64
2023/02/27 08:08:55;;;;;;;12.90;5.50;;;;;;;1.08;72.53;101301.19;129991;1257;114783;-64
2023/02/27 08:11:57;;;;;;;9.10;4.90;;;;;;;1.18;72.42;101303.20;130042;1256;115005;-62
2023/02/27 08:14:59;;;;;;;10.30;4.80;;;;;;;1.27;72.26;101307.64;129949;1256;115192;-63
2023/02/27 08:18:02;;;;;;;12.10;5.20;;;;;;;1.35;71.75;101305.92;129976;1257;114746;-64
2023/02/27 08:21:05;;;;;;;8.90;4.50;;;;;;;1.44;71.97;101301.38;129965;1256;114737;-63
2023/02/27 08:24:07;;;;;;;12.90;7.00;;;;;;;1.50;71.80;101301.59;129990;1256;114798;-62
2023/02/27 08:27:10;;;;;;;11.00;5.00;;;;;;;1.58;71.71;101305.13;130155;1267;115334;-63
2023/02/27 08:30:13;;;;;;;14.40;7.50;;;;;;;1.63;71.58;101305.70;129933;1254;114734;-63
2023/02/27 08:33:16;;;;;;;17.30;8.10;;;;;;;1.74;71.73;101309.95;130069;1259;115236;-61
2023/02/27 08:36:18;;;;;;;13.20;8.00;;;;;;;1.86;71.95;101312.63;130087;1260;114727;-63
2023/02/27 08:39:23;;;;;;;11.00;6.10;;;;;;;1.98;71.52;101310.55;130047;1257;114790;-61
2023/02/27 08:42:25;;;;;;;8.90;4.50;;;;;;;2.06;71.14;101314.08;130052;1260;114754;-63
2023/02/27 08:45:28;;;;;;;20.70;10.10;;;;;;;2.16;71.17;101318.50;129912;1256;115145;-63
2023/02/27 08:48:30;;;;;;;13.70;6.70;;;;;;;2.26;71.09;101319.56;130017;1256;114827;-64
2023/02/27 08:51:33;;;;;;;15.40;9.00;;;;;;;2.37;71.01;101315.88;130090;1254;115080;-62
2023/02/27 08:54:36;;;;;;;15.10;5.30;;;;;;;2.49;71.01;101315.36;130159;1276;127818;-62
2023/02/27 08:57:38;;;;;;;11.50;5.20;;;;;;;2.58;70.27;101317.66;130115;1256;115427;-62
2023/02/27 09:00:41;;;;;;;14.00;5.50;;;;;;;2.68;70.42;101318.88;130154;1257;114801;-65
2023/02/27 09:03:44;;;;;;;10.70;4.80;;;;;;;2.80;70.16;101319.40;130143;1256;114804;-64
2023/02/27 09:06:47;;;;;;;12.10;5.40;;;;;;;2.93;70.17;101317.97;129708;1262;115092;-65
2023/02/27 09:09:49;;;;;;;8.70;4.80;;;;;;;3.08;70.13;101320.95;130283;1272;114849;-64
2023/02/27 09:12:52;;;;;;;10.20;6.90;;;;;;;3.25;69.67;101322.50;129988;1267;114730;-65
2023/02/27 09:15:55;;;;;;;10.60;4.60;;;;;;;3.37;69.00;101329.54;129963;1260;114823;-65
2023/02/27 09:18:57;;;;;;;8.90;4.60;;;;;;;3.46;68.74;101330.39;130184;1256;115099;-65
2023/02/27 09:22:00;;;;;;;9.20;4.00;;;;;;;3.61;68.97;101329.78;130095;1276;114734;-64
2023/02/27 09:25:03;;;;;;;11.50;5.40;;;;;;;3.66;67.99;101336.11;129985;1256;114794;-66
2023/02/27 09:28:05;;;;;;;12.40;5.60;;;;;;;3.70;68.32;101336.11;129973;1266;115221;-65
2023/02/27 09:31:08;;;;;;;14.40;5.50;;;;;;;3.79;68.54;101339.96;130167;1256;115263;-65
2023/02/27 09:34:11;;;;;;;8.60;5.40;;;;;;;3.83;67.67;101346.83;129745;1261;127821;-64
2023/02/27 09:37:18;;;;;;;8.70;4.90;;;;;;;3.82;67.68;101342.24;130032;1256;115418;-64
2023/02/27 09:40:28;;;;;;;10.00;5.10;;;;;;;3.88;68.06;101344.33;130082;1257;114786;-64
2023/02/27 09:43:37;;;;;;;15.10;7.20;;;;;;;3.99;67.93;101344.46;130070;1256;114750;-64
2023/02/27 09:46:39;;;;;;;14.10;5.90;;;;;;;4.07;67.48;101349.36;129988;1254;114865;-64
2023/02/27 09:50:05;;;;;;;10.40;5.90;;;;;;;4.05;67.13;101351.85;129891;1259;114780;-66
2023/02/27 09:53:25;;;;;;;10.90;4.60;;;;;;;4.08;67.54;101352.35;129730;1261;115247;-64
2023/02/27 09:56:31;;;;;;;10.90;5.60;;;;;;;4.14;67.63;101352.86;130041;1261;114807;-65
2023/02/27 09:59:38;;;;;;;;;;;;;;;4.19;67.42;101354.95;130029;1261;114910;-63
2023/02/27 10:03:05;;;;;;;12.10;5.90;;;;;;;4.26;66.91;101356.66;130081;1276;114804;-65
2023/02/27 10:06:27;;;;;;;23.60;6.40;;;;;;;4.25;66.80;101357.38;129921;1266;129061;-65
2023/02/27 10:09:57;;;;;;;18.10;6.60;;;;;;;4.23;66.18;101357.22;130071;1257;115176;-65
2023/02/27 10:13:09;;;;;;;9.50;5.70;;;;;;;4.19;66.18;101357.95;129976;1259;114759;-64
2023/02/27 10:16:14;;;;;;;11.40;6.20;;;;;;;4.21;66.47;101363.95;129982;1276;114903;-67
2023/02/27 10:19:31;;;;;;;12.00;7.20;;;;;;;4.23;66.48;101362.88;129731;1276;115106;-67
2023/02/27 10:22:37;;;;;;;13.50;7.10;;;;;;;4.26;66.21;101359.85;129931;1276;127915;-65
2023/02/27 10:25:44;;;;;;;8.70;5.60;;;;;;;4.27;66.56;101358.25;129633;1260;115214;-66
2023/02/27 10:28:47;;;;;;;12.00;6.00;;;;;;;4.40;66.86;101359.76;129939;1277;114845;-63
2023/02/27 10:31:57;;;;;;;12.70;6.70;;;;;;;4.46;66.03;101361.85;129880;1260;114865;-64
2023/02/27 10:35:28;;;;;;;8.60;4.60;;;;;;;4.46;65.14;101361.50;129882;1258;114746;-67
2023/02/27 10:38:56;;;;;;;9.60;5.00;;;;;;;4.41;64.54;101357.98;129607;1260;127618;-66
2023/02/27 10:42:04;;;;;;;13.30;6.90;;;;;;;4.39;64.24;101362.42;129693;1262;116512;-67
2023/02/27 10:45:14;;;;;;;9.10;5.00;;;;;;;4.36;64.40;101360.15;129640;1262;114904;-66
2023/02/27 10:48:17;;;;;;;9.50;5.90;;;;;;;4.35;64.65;101355.38;129906;1277;114693;-66
2023/02/27 10:51:35;;;;;;;10.40;5.40;;;;;;;4.42;65.23;101355.50;129898;1268;114739;-65
2023/02/27 10:54:39;;;;;;;9.30;5.30;;;;;;;4.59;65.71;101361.39;129597;1276;128522;-66
2023/02/27 10:57:42;;;;;;;8.10;4.80;;;;;;;4.68;64.26;101360.80;130177;1266;115221;-64
2023/02/27 11:00:53;;;;;;;9.20;5.30;;;;;;;4.66;63.47;101357.98;130007;1254;114724;-67
2023/02/27 11:03:56;;;;;;;12.70;5.40;;;;;;;4.65;63.83;101356.91;129970;1258;114792;-66
2023/02/27 11:07:00;;;;;;;7.70;4.60;;;;;;;4.70;63.83;101357.41;130050;1266;114959;-67
2023/02/27 11:10:12;;;;;;;10.40;4.20;;;;;;;4.69;63.42;101351.08;129709;1277;127947;-66
2023/02/27 11:13:20;;;;;;;10.50;5.10;;;;;;;4.65;63.06;101353.02;129938;1258;115268;-65
2023/02/27 11:16:22;;;;;;;10.50;4.80;;;;;;;4.63;63.37;101349.69;129943;1260;114791;-65
2023/02/27 11:19:37;;;;;;;8.50;4.40;;;;;;;4.75;64.15;101348.00;129816;1260;114768;-64
2023/02/27 11:22:40;;;;;;;9.70;4.50;;;;;;;4.89;63.71;101342.20;129895;1270;114644;-63
2023/02/27 11:25:45;;;;;;;6.10;3.20;;;;;;;4.96;63.35;101341.96;129596;1266;127814;-64
2023/02/27 11:29:03;;;;;;;5.70;3.10;;;;;;;5.05;63.05;101347.89;129673;1260;114978;-64
2023/02/27 11:32:13;;;;;;;8.20;4.60;;;;;;;5.12;63.05;101342.70;129731;1261;114777;-65
2023/02/27 11:35:31;;;;;;;6.20;2.90;;;;;;;5.17;62.50;101345.31;129913;1276;114862;-65
2023/02/27 11:38:34;;;;;;;7.70;3.50;;;;;;;5.13;62.25;101335.78;129695;1264;116257;-63
2023/02/27 11:41:39;;;;;;;5.70;3.10;;;;;;;5.05;62.08;101340.45;129976;1256;115103;-66
2023/02/27 11:45:21;;;;;;;6.80;2.70;;;;;;;4.86;60.91;101335.69;130051;1276;114770;-65
2023/02/27 11:48:37;;;;;;;6.10;3.50;;;;;;;4.59;61.25;101336.63;129812;1254;114816;-65
2023/02/27 11:52:01;;;;;;;5.50;2.90;;;;;;;4.42;61.52;101340.13;129993;1256;114821;-65
2023/02/27 11:55:14;;;;;;;9.30;3.90;;;;;;;4.20;60.72;101341.86;129694;1276;114837;-63
2023/02/27 11:58:19;;;;;;;9.40;4.40;;;;;;;3.97;61.38;101343.58;129770;1276;127987;-65
2023/02/27 12:01:25;;;;;;;8.70;4.30;;;;;;;3.81;61.86;101340.30;129750;1273;114886;-68
2023/02/27 12:04:33;;;;;;;9.70;4.90;;;;;;;3.72;62.39;101342.81;129869;1276;114818;-63
2023/02/27 12:07:42;;;;;;;6.20;4.30;;;;;;;3.73;62.99;101342.81;129789;1253;114924;-68
2023/02/27 12:15:23;;;;;;;9.80;4.80;;;;;;;3.79;63.02;101345.98;129926;1276;132014;-63
2023/02/27 12:19:15;;;;;;;6.90;3.90;;;;;;;3.78;63.31;101344.02;129128;1276;116712;-66
2023/02/27 12:22:37;;;;;;;10.30;5.00;;;;;;;3.81;63.39;101345.25;129083;1276;115032;-63
2023/02/27 12:26:38;;;;;;;7.10;4.70;;;;;;;3.85;62.97;101349.30;129089;1269;115032;-64
2023/02/27 12:29:52;;;;;;;11.90;8.30;;;;;;;3.83;62.81;101350.01;129106;1267;115000;-65
2023/02/27 12:33:31;;;;;;;9.30;6.00;;;;;;;3.82;62.91;101347.19;129060;1284;127925;-65
2023/02/27 12:36:33;;;;;;;4.60;3.30;;;;;;;3.76;61.83;101355.17;129281;1274;115272;-63
2023/02/27 12:39:36;;;;;;;3.90;2.50;;;;;;;3.64;61.66;101354.51;129295;1260;114863;-65
2023/02/27 12:43:29;;;;;;;6.10;3.70;;;;;;;3.58;60.81;101360.36;129312;1266;115372;-61
2023/02/27 12:46:49;;;;;;;5.20;3.40;;;;;;;3.54;61.11;101363.20;128802;1279;114865;-63
2023/02/27 12:50:06;;;;;;;7.40;3.70;;;;;;;3.54;61.14;101361.27;128967;1288;128802;-66
2023/02/27 12:53:36;;;;;;;9.20;5.30;;;;;;;3.54;60.68;101361.26;128959;1279;115470;-65
2023/02/27 12:56:45;;;;;;;8.60;5.30;;;;;;;3.53;60.63;101354.54;129211;1284;114834;-65
2023/02/27 13:00:13;;;;;;;12.40;5.70;;;;;;;3.56;60.58;101358.23;129353;1266;114905;-66
2023/02/27 13:03:20;;;;;;;6.10;3.40;;;;;;;3.62;60.71;101359.48;129244;1266;114924;-65
2023/02/27 13:06:33;;;;;;;9.20;4.30;;;;;;;3.62;61.06;101356.48;129362;1283;128870;-73
2023/02/27 13:10:00;;;;;;;21.40;9.20;;;;;;;3.61;60.77;101355.40;129372;1283;115299;-74
2023/02/27 13:13:25;;;;;;;10.20;6.30;;;;;;;3.56;60.83;101361.95;129729;1283;115409;-79
2023/02/27 13:16:38;;;;;;;10.30;5.90;;;;;;;3.46;60.31;101370.64;129390;1276;116503;-64
2023/02/27 13:19:49;;;;;;;12.10;7.00;;;;;;;3.40;60.79;101369.95;129983;1257;114716;-65
2023/02/27 13:23:01;;;;;;;9.50;5.90;;;;;;;3.40;60.91;101365.70;129974;1257;129001;-63
2023/02/27 13:26:10;;;;;;;11.50;5.50;;;;;;;3.40;60.83;101365.72;129849;1270;205488;-63
2023/02/27 13:29:17;;;;;;;7.30;5.30;;;;;;;3.36;60.62;101367.85;129910;1270;114827;-65
2023/02/27 13:32:29;;;;;;;10.40;6.30;;;;;;;3.32;60.93;101365.20;130070;1264;114740;-66
2023/02/27 13:35:40;;;;;;;11.00;6.90;;;;;;;3.34;61.06;101369.09;129928;1267;114965;-63
2023/02/27 13:38:45;;;;;;;12.70;7.30;;;;;;;3.34;60.75;101368.91;129972;1256;128208;-64
2023/02/27 13:41:47;;;;;;;9.10;6.60;;;;;;;3.32;60.89;101369.27;129923;1255;114786;-63
2023/02/27 13:44:49;;;;;;;10.80;6.50;;;;;;;3.35;61.30;101372.45;130029;1254;115084;-63
2023/02/27 13:47:51;;;;;;;13.00;6.90;;;;;;;3.39;61.42;101371.71;130042;1258;114677;-64
2023/02/27 13:50:53;;;;;;;10.00;6.60;;;;;;;3.43;61.41;101373.13;129952;1258;115189;-66
2023/02/27 13:54:14;;;;;;;15.40;8.30;;;;;;;3.45;61.51;101374.89;130000;1257;115436;-62
2023/02/27 13:57:24;;;;;;;13.90;8.60;;;;;;;3.49;61.66;101377.52;129982;1270;128001;-62
2023/02/27 14:00:28;;;;;;;12.60;7.90;;;;;;;3.52;61.56;101377.69;130064;1268;114724;-63
2023/02/27 14:03:31;;;;;;;10.90;7.70;;;;;;;3.51;61.85;101378.93;130047;1257;115220;-61
2023/02/27 14:06:43;;;;;;;12.80;7.30;;;;;;;3.51;61.68;101381.57;130153;1257;114717;-63
2023/02/27 14:09:46;;;;;;;13.10;8.10;;;;;;;3.43;61.37;101382.84;129724;1260;116066;-61
2023/02/27 14:12:48;;;;;;;18.90;10.60;;;;;;;3.31;61.61;101387.63;130126;1260;128137;-62
2023/02/27 14:15:55;;;;;;;22.20;11.60;;;;;;;3.20;62.08;101392.41;130035;1253;114843;-62
2023/02/27 14:19:00;;;;;;;20.50;11.30;;;;;;;3.03;62.30;101393.67;129792;1257;114825;-63
2023/02/27 14:22:30;;;;;;;19.20;10.40;;;;;;;2.93;62.62;101393.14;129926;1260;115305;-64